Time;durP1;ratioP1;P1;durP2;ratioP2;P2;SDS_P1;SDS_P2;PMS_P1;PMS_P2;Temp;Humidity;BMP_temperature;BMP_pressure;BME280_temperature;BME280_humidity;BME280_pressure;Samples;Min_cycle;Max_cycle;Signal;HPM_P1;HPM_P2
2021/03/09 00:00:27;;;;;;;33.07;14.77;;;;;;;5.99;34.87;94576.16;5014587;28;20590;-67
2021/03/09 00:02:53;;;;;;;31.87;13.93;;;;;;;6.03;35.10;94573.66;5014520;28;20177;-67
2021/03/09 00:05:19;;;;;;;31.97;14.03;;;;;;;5.85;34.12;94565.03;5014180;28;20188;-68
2021/03/09 00:07:44;;;;;;;28.50;15.17;;;;;;;5.83;34.87;94573.28;5014756;28;20259;-67
2021/03/09 00:10:10;;;;;;;31.93;13.83;;;;;;;5.75;34.75;94576.75;5013122;28;20636;-68
2021/03/09 00:12:36;;;;;;;31.03;13.57;;;;;;;5.73;35.97;94581.63;5014364;28;20667;-68
2021/03/09 00:15:02;;;;;;;31.03;12.50;;;;;;;5.68;36.03;94591.63;5014024;28;20408;-68
2021/03/09 00:17:27;;;;;;;34.27;12.67;;;;;;;5.53;37.20;94585.00;5014430;28;20190;-68
2021/03/09 00:19:53;;;;;;;30.37;14.63;;;;;;;5.59;35.98;94591.66;5013865;28;20885;-69
2021/03/09 00:22:18;;;;;;;32.53;13.87;;;;;;;5.62;36.74;94582.31;5014251;28;20182;-68
2021/03/09 00:24:44;;;;;;;27.57;13.23;;;;;;;5.55;35.46;94596.03;5013048;28;20184;-68
2021/03/09 00:27:09;;;;;;;29.47;12.00;;;;;;;5.58;35.98;94587.47;5013883;28;20169;-69
2021/03/09 00:29:36;;;;;;;25.70;12.83;;;;;;;5.52;37.21;94594.03;5014196;28;20184;-73
2021/03/09 00:32:03;;;;;;;32.07;13.20;;;;;;;5.56;35.04;94587.78;5013857;28;20169;-68
2021/03/09 00:34:29;;;;;;;27.75;12.73;;;;;;;5.69;34.69;94590.53;5012602;28;20523;-70
2021/03/09 00:36:54;;;;;;;28.97;13.67;;;;;;;5.70;35.97;94594.72;5013709;28;20184;-69
2021/03/09 00:39:20;;;;;;;32.17;13.40;;;;;;;5.63;37.30;94591.81;5013803;28;20169;-75
2021/03/09 00:41:45;;;;;;;30.70;14.77;;;;;;;5.63;36.78;94589.94;5013660;28;20184;-69
2021/03/09 00:44:10;;;;;;;27.57;13.33;;;;;;;5.61;36.42;94588.69;5013860;28;20208;-69
2021/03/09 00:46:36;;;;;;;25.93;13.30;;;;;;;5.49;36.58;94586.72;5013699;28;20169;-68
2021/03/09 00:49:01;;;;;;;33.33;14.17;;;;;;;5.44;36.16;94600.13;5013785;28;20731;-69
2021/03/09 00:51:27;;;;;;;26.30;12.50;;;;;;;5.20;37.61;94592.78;5013374;28;20188;-68
2021/03/09 00:53:52;;;;;;;31.10;14.43;;;;;;;4.98;37.70;94589.25;5013488;28;20217;-72
2021/03/09 00:56:18;;;;;;;35.43;13.67;;;;;;;5.14;38.54;94589.53;5013625;28;20642;-67
2021/03/09 00:58:43;;;;;;;30.43;13.30;;;;;;;5.10;38.06;94591.25;5013237;28;20296;-72
2021/03/09 01:01:09;;;;;;;29.03;12.87;;;;;;;5.15;37.21;94585.78;5013483;28;20228;-68
2021/03/09 01:03:34;;;;;;;30.07;13.00;;;;;;;5.27;38.04;94588.53;5013243;28;20260;-68
2021/03/09 01:06:00;;;;;;;35.33;12.57;;;;;;;5.25;36.66;94587.31;5028461;28;20200;-71
2021/03/09 01:08:25;;;;;;;27.87;13.57;;;;;;;5.20;37.20;94590.13;5012046;28;20173;-69
2021/03/09 01:10:51;;;;;;;25.83;12.53;;;;;;;5.38;36.92;94583.66;5013297;28;20227;-68
2021/03/09 01:13:16;;;;;;;30.20;13.20;;;;;;;5.37;37.59;94579.47;5013219;28;20268;-67
2021/03/09 01:15:42;;;;;;;26.73;13.17;;;;;;;5.45;37.10;94586.59;5012994;28;20180;-71
2021/03/09 01:18:07;;;;;;;31.23;14.03;;;;;;;5.42;37.02;94583.81;5013186;28;20172;-70
2021/03/09 01:20:33;;;;;;;28.50;13.83;;;;;;;5.41;36.36;94582.25;5012806;28;20197;-67
2021/03/09 01:22:59;;;;;;;27.13;14.27;;;;;;;4.68;36.23;94583.13;5012980;28;20181;-68
2021/03/09 01:25:24;;;;;;;32.87;14.37;;;;;;;4.28;36.30;94581.78;5012816;28;20660;-67
2021/03/09 01:27:50;;;;;;;30.17;14.37;;;;;;;4.32;37.37;94575.56;5013010;28;20195;-67
2021/03/09 01:30:16;;;;;;;33.53;15.10;;;;;;;4.49;37.28;94578.19;5011552;28;20192;-67
2021/03/09 01:32:42;;;;;;;31.67;14.32;;;;;;;4.90;36.10;94579.50;5011416;28;20185;-68
2021/03/09 01:35:08;;;;;;;30.93;14.60;;;;;;;5.20;35.71;94579.53;5012627;28;20176;-68
2021/03/09 01:37:33;;;;;;;27.33;13.13;;;;;;;5.35;36.10;94572.94;5012709;28;20209;-68
2021/03/09 01:39:59;;;;;;;36.73;14.73;;;;;;;5.43;34.97;94580.81;5012689;28;20525;-67
2021/03/09 01:42:24;;;;;;;24.07;12.90;;;;;;;5.45;35.65;94577.88;5012736;28;20185;-69
2021/03/09 01:44:50;;;;;;;30.20;13.83;;;;;;;5.52;33.76;94594.81;5012758;28;20172;-70
2021/03/09 01:47:17;;;;;;;25.80;13.20;;;;;;;5.36;34.17;94593.03;5012512;28;20647;-67
2021/03/09 01:49:42;;;;;;;22.67;10.83;;;;;;;5.36;33.66;94591.16;5011443;28;20169;-67
2021/03/09 01:52:08;;;;;;;21.17;10.00;;;;;;;5.27;34.47;94588.53;5011006;28;21482;-68
2021/03/09 01:54:34;;;;;;;26.67;12.30;;;;;;;5.13;34.57;94597.78;5012508;28;20232;-67
2021/03/09 01:57:00;;;;;;;22.07;11.40;;;;;;;5.00;34.92;94592.38;5012210;28;20185;-67
2021/03/09 01:59:26;;;;;;;24.17;10.53;;;;;;;5.36;34.99;94591.16;5011212;28;20189;-67
2021/03/09 02:01:51;;;;;;;22.03;11.13;;;;;;;5.34;35.75;94588.06;5010913;28;20447;-69
2021/03/09 02:04:17;;;;;;;22.03;10.27;;;;;;;5.43;36.28;94585.34;5011236;28;20259;-72
2021/03/09 02:06:42;;;;;;;20.07;9.07;;;;;;;5.31;36.56;94588.69;5012272;28;20185;-70
2021/03/09 02:09:08;;;;;;;22.43;10.57;;;;;;;5.23;36.02;94582.34;5011979;28;20181;-71
2021/03/09 02:11:52;;;;;;;26.47;10.87;;;;;;;5.16;36.58;94582.06;5011155;28;20535;-69
2021/03/09 02:14:35;;;;;;;25.65;11.90;;;;;;;4.81;37.51;94570.03;5012074;28;20204;-67
2021/03/09 02:17:11;;;;;;;25.85;11.68;;;;;;;5.21;37.37;94581.09;4996229;28;20663;-68
2021/03/09 02:19:58;;;;;;;24.33;11.52;;;;;;;5.23;37.10;94584.97;5011631;28;20559;-68
2021/03/09 02:22:51;;;;;;;24.20;10.98;;;;;;;5.22;37.21;94582.66;5011990;28;20204;-69
2021/03/09 02:25:35;;;;;;;25.13;12.90;;;;;;;5.25;37.97;94582.00;5011844;28;20267;-69
2021/03/09 02:28:19;;;;;;;29.63;13.30;;;;;;;5.27;37.96;94585.09;5011761;28;20185;-69
2021/03/09 02:30:45;;;;;;;26.38;12.85;;;;;;;5.21;37.01;94586.38;5011830;28;20177;-74
2021/03/09 02:33:17;;;;;;;27.00;12.23;;;;;;;5.14;37.51;94589.53;5010726;28;20230;-68
2021/03/09 02:35:55;;;;;;;23.48;11.90;;;;;;;5.00;38.08;94589.75;5011667;28;20173;-67
2021/03/09 02:38:21;;;;;;;28.05;11.50;;;;;;;5.11;37.97;94589.41;5010518;28;20609;-67
2021/03/09 02:40:48;;;;;;;26.35;12.68;;;;;;;5.18;35.99;94595.75;5011490;28;20219;-67
2021/03/09 02:43:15;;;;;;;26.95;10.27;;;;;;;5.11;37.29;94584.88;4994298;28;20755;-68
2021/03/09 02:45:41;;;;;;;22.98;10.93;;;;;;;5.07;36.69;94583.19;5010453;28;20192;-67
2021/03/09 02:48:06;;;;;;;21.30;10.20;;;;;;;4.85;37.63;94598.19;4994340;28;20554;-67
2021/03/09 02:50:33;;;;;;;26.13;11.67;;;;;;;4.36;37.74;94596.84;4993951;28;20260;-68
2021/03/09 02:53:10;;;;;;;23.50;10.77;;;;;;;4.18;37.35;94596.06;5010388;28;20643;-68
2021/03/09 02:55:36;;;;;;;29.63;12.77;;;;;;;4.19;37.58;94602.91;5010424;28;20184;-67
2021/03/09 02:58:01;;;;;;;26.43;11.43;;;;;;;4.10;38.01;94597.63;4994140;28;20564;-68
2021/03/09 03:00:26;;;;;;;26.43;13.20;;;;;;;4.28;38.21;94597.63;5010256;28;20205;-68
2021/03/09 03:02:52;;;;;;;22.97;12.40;;;;;;;4.30;37.79;94596.22;5010415;28;20177;-69
2021/03/09 03:05:18;;;;;;;22.07;11.23;;;;;;;4.60;38.53;94596.34;5010522;28;20188;-68
2021/03/09 03:07:43;;;;;;;21.97;11.20;;;;;;;4.86;38.44;94606.88;5010075;28;20268;-67
2021/03/09 03:10:12;;;;;;;31.20;12.20;;;;;;;4.79;40.31;94599.44;5010310;28;20196;-67
2021/03/09 03:12:38;;;;;;;29.90;12.38;;;;;;;4.84;38.40;94599.28;5010118;28;20181;-67
2021/03/09 03:15:04;;;;;;;31.90;14.90;;;;;;;5.03;37.65;94594.38;5010335;28;20678;-67
2021/03/09 03:17:30;;;;;;;25.55;11.48;;;;;;;5.02;37.79;94595.47;5010033;28;20205;-67
2021/03/09 03:19:55;;;;;;;22.10;10.80;;;;;;;4.66;39.52;94603.06;5010258;28;20283;-67
2021/03/09 03:22:21;;;;;;;27.77;10.37;;;;;;;4.55;39.62;94594.66;5011247;28;20173;-67
2021/03/09 03:24:46;;;;;;;23.70;11.27;;;;;;;4.71;38.38;94602.84;5010151;28;20181;-67
2021/03/09 03:27:17;;;;;;;25.13;11.43;;;;;;;4.75;38.47;94596.63;5009560;28;20263;-67
2021/03/09 03:29:42;;;;;;;20.02;10.32;;;;;;;4.77;38.30;94609.56;4994337;28;20181;-67
2021/03/09 03:32:08;;;;;;;19.40;9.83;;;;;;;4.88;38.55;94605.50;5011351;28;20558;-68
2021/03/09 03:34:33;;;;;;;26.37;11.13;;;;;;;4.63;40.25;94607.09;4997342;28;20636;-67
2021/03/09 03:36:59;;;;;;;24.83;11.77;;;;;;;4.79;39.03;94604.72;5013776;28;20192;-67
2021/03/09 03:39:24;;;;;;;21.50;10.83;;;;;;;4.69;39.08;94615.63;5013412;28;20525;-67
2021/03/09 03:41:50;;;;;;;24.77;12.07;;;;;;;4.63;40.32;94614.25;5013722;28;20177;-67
2021/03/09 03:44:15;;;;;;;23.33;11.13;;;;;;;4.07;39.57;94623.91;5013532;28;20169;-67
2021/03/09 03:46:41;;;;;;;31.27;15.67;;;;;;;3.50;41.10;94623.94;5014886;28;20227;-67
2021/03/09 03:49:08;;;;;;;27.73;12.63;;;;;;;3.67;40.46;94624.00;5014975;28;20578;-69
2021/03/09 03:51:36;;;;;;;27.73;12.57;;;;;;;3.96;40.37;94633.97;5013414;28;20169;-68
2021/03/09 03:54:04;;;;;;;25.27;12.38;;;;;;;4.05;40.74;94621.56;5013332;28;20173;-67
2021/03/09 03:56:54;;;;;;;25.10;13.05;;;;;;;4.49;40.37;94625.78;5014648;28;20170;-67
2021/03/09 03:59:36;;;;;;;23.05;12.85;;;;;;;4.56;41.60;94612.09;5014390;28;20181;-67
2021/03/09 04:02:04;;;;;;;26.42;12.23;;;;;;;4.65;39.84;94601.47;4998509;28;20671;-67
2021/03/09 04:04:29;;;;;;;28.13;12.60;;;;;;;4.66;39.58;94611.75;4996870;28;20204;-67
2021/03/09 04:06:55;;;;;;;22.67;11.20;;;;;;;4.61;40.26;94613.78;5013310;28;20169;-70
2021/03/09 04:09:20;;;;;;;26.50;11.27;;;;;;;4.50;40.94;94610.69;5014426;28;20189;-68
2021/03/09 04:11:47;;;;;;;22.73;12.57;;;;;;;4.73;40.44;94612.06;5013212;28;20235;-70
2021/03/09 04:14:12;;;;;;;22.88;11.10;;;;;;;4.73;40.28;94624.50;5014213;28;20177;-68
2021/03/09 04:16:38;;;;;;;21.17;10.77;;;;;;;4.81;39.65;94601.75;5013263;28;20220;-68
2021/03/09 04:19:04;;;;;;;28.80;11.23;;;;;;;4.83;39.87;94618.13;5013030;28;20177;-69
2021/03/09 04:21:30;;;;;;;21.58;10.70;;;;;;;5.01;39.24;94622.25;5013858;28;20231;-72
2021/03/09 04:23:56;;;;;;;21.40;11.37;;;;;;;5.07;39.88;94630.81;5012984;28;20653;-71
2021/03/09 04:26:22;;;;;;;23.03;10.80;;;;;;;4.99;39.44;94629.72;5012407;28;20254;-67
2021/03/09 04:28:48;;;;;;;26.73;11.18;;;;;;;5.04;39.01;94640.91;5014041;28;20218;-69
2021/03/09 04:31:14;;;;;;;21.25;10.48;;;;;;;5.03;38.88;94636.72;5012199;28;20216;-68
2021/03/09 04:33:40;;;;;;;24.60;10.37;;;;;;;5.01;38.98;94638.91;5012701;28;20181;-70
2021/03/09 04:36:06;;;;;;;28.73;12.03;;;;;;;5.16;38.96;94650.06;4996380;28;20419;-70
2021/03/09 04:38:31;;;;;;;24.00;10.63;;;;;;;5.18;38.69;94645.25;5012206;28;20192;-68
2021/03/09 04:40:57;;;;;;;21.57;11.37;;;;;;;5.13;38.34;94638.25;5012217;28;20228;-68
2021/03/09 04:43:22;;;;;;;25.03;12.40;;;;;;;4.76;38.17;94626.50;5012182;28;20648;-70
2021/03/09 04:45:48;;;;;;;19.50;10.10;;;;;;;4.77;37.93;94626.22;5012507;28;20173;-70
2021/03/09 04:48:13;;;;;;;24.20;11.57;;;;;;;4.92;38.72;94624.16;5012330;28;20726;-68
2021/03/09 04:50:38;;;;;;;22.93;10.33;;;;;;;4.81;38.46;94629.00;5011929;28;20193;-68
2021/03/09 04:53:07;;;;;;;21.80;10.80;;;;;;;4.18;40.17;94636.50;5013160;28;20221;-68
2021/03/09 04:55:32;;;;;;;20.20;11.13;;;;;;;4.06;39.74;94643.47;5013570;28;20656;-68
2021/03/09 04:57:58;;;;;;;18.97;10.20;;;;;;;3.78;41.03;94649.03;5010314;28;20188;-71
2021/03/09 05:00:25;;;;;;;23.17;11.07;;;;;;;3.54;41.57;94648.66;5012068;28;20200;-68
2021/03/09 05:02:51;;;;;;;23.70;11.85;;;;;;;3.64;41.30;94651.00;5010234;28;20700;-70
2021/03/09 05:05:17;;;;;;;21.55;10.80;;;;;;;3.68;42.45;94655.34;5011669;28;20544;-69
2021/03/09 05:07:43;;;;;;;22.55;10.23;;;;;;;3.43;42.13;94643.63;5012140;28;20304;-71
2021/03/09 05:10:09;;;;;;;24.57;11.10;;;;;;;3.18;42.75;94636.38;5012840;28;20237;-70
2021/03/09 05:12:37;;;;;;;27.05;11.55;;;;;;;3.72;42.23;94640.47;5013010;28;20176;-68
2021/03/09 05:15:04;;;;;;;21.60;11.75;;;;;;;4.26;41.50;94637.56;5011745;28;20268;-68
2021/03/09 05:17:29;;;;;;;24.77;12.05;;;;;;;4.48;40.88;94642.72;5011449;28;20652;-68
2021/03/09 05:19:55;;;;;;;25.10;10.77;;;;;;;4.58;41.00;94644.25;5012592;28;20197;-75
2021/03/09 05:22:20;;;;;;;20.73;11.87;;;;;;;4.73;41.87;94648.31;5012869;28;20308;-69
2021/03/09 05:24:46;;;;;;;21.10;11.13;;;;;;;4.27;41.76;94635.72;5012641;28;20172;-72
2021/03/09 05:27:11;;;;;;;24.93;11.87;;;;;;;4.56;40.69;94641.16;5010731;28;20168;-68
2021/03/09 05:29:37;;;;;;;25.27;11.77;;;;;;;4.07;41.73;94643.16;5012065;28;20210;-73
2021/03/09 05:32:02;;;;;;;27.03;12.30;;;;;;;3.89;42.78;94646.88;5012782;28;20177;-68
2021/03/09 05:34:28;;;;;;;29.13;11.97;;;;;;;4.26;41.93;94648.16;4984677;28;20251;-68
2021/03/09 05:36:53;;;;;;;30.57;13.60;;;;;;;4.03;42.73;94649.38;4997951;28;20339;-71
2021/03/09 05:39:19;;;;;;;27.17;11.63;;;;;;;4.41;42.85;94649.56;4985673;28;20227;-68
2021/03/09 05:41:44;;;;;;;27.07;12.00;;;;;;;4.68;41.28;94637.88;5004344;28;20216;-68
2021/03/09 05:44:10;;;;;;;22.90;10.50;;;;;;;4.74;40.52;94631.34;5012486;28;20173;-70
2021/03/09 05:46:35;;;;;;;20.77;10.90;;;;;;;4.85;41.08;94642.38;5007564;28;20188;-67
2021/03/09 05:49:01;;;;;;;26.47;10.23;;;;;;;4.82;41.69;94657.00;5009688;28;20180;-69
2021/03/09 05:51:29;;;;;;;22.83;10.53;;;;;;;5.14;41.37;94649.63;5012303;28;20181;-69
2021/03/09 05:53:54;;;;;;;18.63;10.65;;;;;;;5.14;39.09;94653.03;4995329;28;20319;-67
2021/03/09 05:56:20;;;;;;;25.73;12.67;;;;;;;4.99;40.22;94654.34;5010301;28;20272;-68
2021/03/09 05:58:45;;;;;;;25.07;10.97;;;;;;;5.14;39.67;94646.97;4994804;28;20234;-68
2021/03/09 06:01:11;;;;;;;27.93;10.77;;;;;;;5.20;39.61;94648.34;4994513;28;20212;-69
2021/03/09 06:03:36;;;;;;;25.83;10.73;;;;;;;5.37;39.19;94655.47;5012464;28;20603;-69
2021/03/09 06:06:02;;;;;;;22.73;10.77;;;;;;;5.47;39.45;94653.25;5012378;28;20187;-68
2021/03/09 06:08:29;;;;;;;26.07;10.47;;;;;;;5.63;39.31;94648.19;5011968;28;20196;-69
2021/03/09 06:11:13;;;;;;;30.40;9.67;;;;;;;5.60;39.31;94663.94;5012250;28;20175;-68
2021/03/09 06:13:39;;;;;;;24.40;10.45;;;;;;;5.34;39.96;94664.84;5012233;28;20428;-69
2021/03/09 06:16:04;;;;;;;20.50;10.27;;;;;;;5.52;39.22;94668.19;5011043;28;20268;-69
2021/03/09 06:18:30;;;;;;;19.63;11.60;;;;;;;5.71;38.88;94668.56;5011977;28;20555;-68
2021/03/09 06:21:14;;;;;;;27.23;11.57;;;;;;;5.87;38.78;94670.69;5011887;28;20208;-67
2021/03/09 06:23:43;;;;;;;32.43;11.13;;;;;;;5.97;38.19;94675.66;5012104;28;20177;-69
2021/03/09 06:26:35;;;;;;;24.27;10.85;;;;;;;6.04;38.32;94678.56;5012046;28;20850;-68
2021/03/09 06:29:16;;;;;;;26.47;11.07;;;;;;;6.14;37.78;94688.81;5011923;28;20188;-67
2021/03/09 06:31:56;;;;;;;25.13;11.17;;;;;;;6.07;38.17;94688.53;5010476;28;20423;-68
2021/03/09 06:34:31;;;;;;;19.50;9.77;;;;;;;6.37;37.03;94686.63;5011965;28;20459;-69
2021/03/09 06:37:10;;;;;;;24.57;11.73;;;;;;;6.43;36.21;94687.22;4994095;28;20469;-69
2021/03/09 06:39:51;;;;;;;27.10;11.43;;;;;;;5.80;36.99;94684.44;5011776;28;20412;-75
2021/03/09 06:42:22;;;;;;;32.53;10.93;;;;;;;5.83;37.88;94684.56;5011697;28;20428;-73
2021/03/09 06:44:48;;;;;;;19.17;10.17;;;;;;;5.79;38.13;94694.25;5010126;28;20442;-71
2021/03/09 06:47:14;;;;;;;21.67;11.33;;;;;;;6.14;37.05;94699.41;5011850;28;20927;-70
2021/03/09 06:49:53;;;;;;;20.93;9.27;;;;;;;6.06;36.56;94692.25;5011801;28;20408;-69
2021/03/09 06:52:19;;;;;;;19.40;9.17;;;;;;;6.12;36.13;94685.72;5011624;28;20220;-68
2021/03/09 06:54:49;;;;;;;18.80;10.43;;;;;;;6.34;37.03;94690.72;5011447;28;20412;-68
2021/03/09 06:57:15;;;;;;;24.67;10.37;;;;;;;6.75;36.45;94689.16;5011831;28;20416;-68
2021/03/09 06:59:45;;;;;;;21.50;10.53;;;;;;;6.85;35.15;94688.78;5010373;28;20489;-69
2021/03/09 07:02:11;;;;;;;15.77;9.77;;;;;;;6.89;34.75;94689.66;5011804;28;20573;-68
2021/03/09 07:04:44;;;;;;;23.07;11.00;;;;;;;7.05;34.22;94684.50;5011642;28;20495;-68
2021/03/09 07:07:11;;;;;;;22.87;11.03;;;;;;;7.08;34.81;94699.81;5014545;28;20408;-71
2021/03/09 07:09:38;;;;;;;19.53;11.50;;;;;;;7.19;34.54;94694.09;5015887;28;20771;-72
2021/03/09 07:12:04;;;;;;;22.27;10.73;;;;;;;6.98;33.94;94686.94;5015354;28;20408;-71
2021/03/09 07:14:32;;;;;;;21.83;10.93;;;;;;;7.02;34.23;94689.72;5014434;28;20511;-70
2021/03/09 07:17:02;;;;;;;20.47;10.20;;;;;;;6.93;33.94;94697.75;5013923;28;20173;-69
2021/03/09 07:19:42;;;;;;;28.60;11.17;;;;;;;6.87;34.73;94704.34;5015280;28;20428;-69
2021/03/09 07:22:09;;;;;;;23.30;11.27;;;;;;;7.07;34.73;94706.22;5013891;28;20942;-72
2021/03/09 07:24:35;;;;;;;31.63;11.50;;;;;;;7.20;33.69;94709.69;5015213;28;20416;-71
2021/03/09 07:27:11;;;;;;;25.53;11.57;;;;;;;7.38;34.02;94707.63;4997307;28;20419;-69
2021/03/09 07:29:37;;;;;;;23.47;12.67;;;;;;;7.38;33.67;94702.31;5014248;28;20223;-72
2021/03/09 07:32:02;;;;;;;24.23;11.87;;;;;;;7.50;34.19;94704.22;5013788;28;20797;-70
2021/03/09 07:34:28;;;;;;;24.87;12.90;;;;;;;7.42;33.70;94705.88;4997469;28;20184;-68
2021/03/09 07:36:54;;;;;;;27.50;11.53;;;;;;;7.10;33.83;94704.78;5013651;28;20683;-71
2021/03/09 07:39:20;;;;;;;27.13;12.17;;;;;;;7.25;33.96;94698.09;5015054;28;20177;-70
2021/03/09 07:41:45;;;;;;;30.33;13.30;;;;;;;7.33;34.23;94702.53;5013645;28;20482;-70
2021/03/09 07:44:11;;;;;;;27.10;13.00;;;;;;;7.51;33.93;94700.47;4997489;28;20173;-69
2021/03/09 07:46:36;;;;;;;25.57;12.20;;;;;;;7.42;33.80;94695.25;5013567;28;20173;-69
2021/03/09 07:49:02;;;;;;;26.00;12.47;;;;;;;7.57;34.78;94697.25;4997453;28;20169;-68
2021/03/09 07:51:27;;;;;;;26.00;12.23;;;;;;;7.20;34.53;94699.06;5014423;28;20203;-71
2021/03/09 07:54:13;;;;;;;31.87;13.83;;;;;;;6.94;35.40;94699.28;5014678;28;20188;-69
2021/03/09 07:57:17;;;;;;;25.53;12.27;;;;;;;7.23;35.73;94690.44;5014484;28;20563;-67
2021/03/09 07:59:59;;;;;;;28.47;13.83;;;;;;;7.59;35.39;94683.66;5014619;28;20938;-69
2021/03/09 08:02:42;;;;;;;34.57;14.20;;;;;;;7.69;33.56;94685.88;5014591;28;20456;-72
2021/03/09 08:05:14;;;;;;;38.37;13.13;;;;;;;7.60;34.14;94688.63;5014431;28;20957;-69
2021/03/09 08:07:46;;;;;;;39.13;14.80;;;;;;;7.50;34.16;94693.59;5013271;28;20470;-68
2021/03/09 08:10:30;;;;;;;35.83;13.90;;;;;;;7.51;33.63;94687.94;5013099;28;20798;-68
2021/03/09 08:12:56;;;;;;;51.23;15.43;;;;;;;7.42;34.22;94687.28;5014367;28;20431;-68
2021/03/09 08:15:22;;;;;;;35.70;16.63;;;;;;;7.37;34.59;94679.53;4996589;28;20424;-67
2021/03/09 08:17:47;;;;;;;34.17;15.87;;;;;;;7.47;34.84;94670.34;4996209;28;20193;-67
2021/03/09 08:20:54;;;;;;;30.43;15.60;;;;;;;7.89;33.95;94678.91;5012773;28;20208;-68
2021/03/09 08:23:51;;;;;;;32.40;15.73;;;;;;;7.88;33.89;94677.38;5014582;28;20652;-70
2021/03/09 08:26:19;;;;;;;32.17;15.83;;;;;;;8.14;33.38;94675.16;5014193;28;20507;-69
2021/03/09 08:28:44;;;;;;;42.30;17.97;;;;;;;8.10;33.50;94676.91;5014008;28;21383;-68
2021/03/09 08:31:10;;;;;;;29.03;14.73;;;;;;;7.84;33.51;94679.13;5014011;28;20413;-69
2021/03/09 08:33:36;;;;;;;33.83;15.20;;;;;;;7.68;34.46;94679.00;5013737;28;20268;-70
2021/03/09 08:36:28;;;;;;;33.20;15.33;;;;;;;8.01;33.29;94681.56;4996623;28;20264;-70
2021/03/09 08:39:08;;;;;;;37.70;15.10;;;;;;;8.22;33.13;94668.91;5013599;28;20415;-68
2021/03/09 08:41:42;;;;;;;33.27;15.30;;;;;;;8.39;33.49;94662.59;5013785;28;20490;-68
2021/03/09 08:44:23;;;;;;;28.23;13.10;;;;;;;8.36;33.33;94667.81;5013544;28;20434;-68
2021/03/09 08:47:05;;;;;;;26.10;13.43;;;;;;;8.07;34.08;94669.59;5013683;28;20914;-67
2021/03/09 08:49:36;;;;;;;28.60;13.30;;;;;;;8.32;33.09;94662.38;5013704;28;20815;-68
2021/03/09 08:52:08;;;;;;;21.53;10.67;;;;;;;8.20;32.56;94668.50;5013296;28;20550;-68
2021/03/09 08:54:38;;;;;;;19.10;10.83;;;;;;;7.94;33.15;94676.81;5012456;28;20515;-68
2021/03/09 08:57:23;;;;;;;21.07;11.73;;;;;;;8.17;33.07;94663.81;5013314;28;20439;-69
2021/03/09 08:59:50;;;;;;;23.63;12.03;;;;;;;8.25;33.61;94664.03;5028675;28;20536;-68
2021/03/09 09:02:20;;;;;;;25.10;12.83;;;;;;;8.45;33.95;94673.78;5013321;28;20420;-67
2021/03/09 09:04:47;;;;;;;26.93;11.83;;;;;;;8.68;32.90;94674.84;5012144;28;20428;-73
2021/03/09 09:07:29;;;;;;;28.27;11.93;;;;;;;8.76;33.47;94667.06;5012020;28;20444;-68
2021/03/09 09:10:04;;;;;;;27.87;13.37;;;;;;;8.86;32.01;94658.56;5013292;28;20432;-72
2021/03/09 09:12:34;;;;;;;27.93;12.30;;;;;;;8.81;32.00;94658.81;5013076;28;20433;-69
2021/03/09 09:15:01;;;;;;;25.10;12.80;;;;;;;8.79;32.61;94674.34;5013012;28;20428;-68
2021/03/09 09:17:27;;;;;;;20.80;11.23;;;;;;;8.77;32.78;94673.94;5011585;28;20439;-69
2021/03/09 09:20:00;;;;;;;24.13;12.50;;;;;;;8.96;32.48;94666.09;5012928;28;20464;-67
2021/03/09 09:22:29;;;;;;;23.70;12.80;;;;;;;9.18;31.50;94660.22;5011550;28;20451;-71
2021/03/09 09:25:05;;;;;;;22.53;12.33;;;;;;;9.15;31.15;94665.47;5011874;28;20423;-73
2021/03/09 09:28:00;;;;;;;28.20;14.00;;;;;;;8.99;31.06;94663.53;5012604;28;20456;-71
2021/03/09 09:30:42;;;;;;;20.60;11.77;;;;;;;9.02;31.57;94662.06;4951461;28;20474;-68
2021/03/09 09:33:09;;;;;;;21.63;12.57;;;;;;;9.23;31.59;94657.31;4952569;29;20430;-68
2021/03/09 09:35:34;;;;;;;25.57;13.63;;;;;;;9.19;31.65;94659.09;4935799;29;20479;-69
2021/03/09 09:38:05;;;;;;;25.37;12.30;;;;;;;8.80;31.44;94650.06;4952565;29;20426;-68
2021/03/09 09:40:32;;;;;;;21.83;11.63;;;;;;;8.95;32.48;94654.66;4951863;29;20222;-68
2021/03/09 09:43:06;;;;;;;21.83;12.53;;;;;;;9.11;31.60;94659.25;4951916;29;20534;-67
2021/03/09 09:45:32;;;;;;;32.13;13.90;;;;;;;9.17;32.16;94657.91;4936768;29;21008;-67
2021/03/09 09:47:58;;;;;;;33.37;12.53;;;;;;;9.25;32.20;94657.72;4952362;29;20819;-71
2021/03/09 09:50:25;;;;;;;26.50;13.87;;;;;;;9.47;30.86;94667.03;4952189;29;20431;-67
2021/03/09 09:53:00;;;;;;;25.47;13.83;;;;;;;9.22;30.72;94657.66;4935988;29;20541;-73
2021/03/09 09:55:30;;;;;;;27.40;13.73;;;;;;;9.21;31.17;94651.53;4951797;29;20419;-68
2021/03/09 09:57:57;;;;;;;24.57;13.23;;;;;;;9.34;31.48;94656.81;4952018;29;20422;-69
2021/03/09 10:00:24;;;;;;;30.17;14.83;;;;;;;9.32;31.78;94645.72;4951902;29;20477;-73
2021/03/09 10:03:09;;;;;;;25.83;14.00;;;;;;;9.18;31.13;94649.56;4935858;29;20445;-73
2021/03/09 10:05:35;;;;;;;29.20;13.57;;;;;;;9.24;31.61;94658.06;4951746;29;20845;-69
2021/03/09 10:08:00;;;;;;;29.90;13.63;;;;;;;9.48;30.61;94652.63;5011508;28;20950;-69
2021/03/09 10:10:26;;;;;;;26.80;14.53;;;;;;;9.44;29.97;94638.41;5012325;28;20431;-74
2021/03/09 10:12:51;;;;;;;27.50;14.20;;;;;;;9.48;30.49;94639.28;5011978;28;20256;-72
2021/03/09 10:15:19;;;;;;;32.97;16.20;;;;;;;9.62;31.12;94638.84;5012207;28;20176;-70
2021/03/09 10:17:44;;;;;;;31.97;15.17;;;;;;;9.75;31.24;94639.53;5011880;28;20238;-72
2021/03/09 10:20:30;;;;;;;27.63;13.50;;;;;;;9.59;30.66;94636.84;5011945;28;20571;-69
2021/03/09 10:23:02;;;;;;;25.90;14.93;;;;;;;9.50;30.12;94637.03;5011615;28;20193;-70
2021/03/09 10:25:28;;;;;;;29.20;14.90;;;;;;;9.30;30.38;94631.94;5011998;28;20420;-69
2021/03/09 10:28:03;;;;;;;33.30;14.40;;;;;;;8.91;30.78;94629.81;5010506;28;20800;-72
2021/03/09 10:30:41;;;;;;;26.97;13.03;;;;;;;9.26;30.53;94621.22;5010429;28;20696;-70
2021/03/09 10:33:10;;;;;;;24.63;14.87;;;;;;;9.36;30.62;94617.25;5011820;28;20506;-69
2021/03/09 10:35:56;;;;;;;30.77;13.43;;;;;;;9.43;31.48;94626.22;5011770;28;20476;-69
2021/03/09 10:38:22;;;;;;;38.43;16.77;;;;;;;9.46;31.12;94624.75;5004561;28;20440;-70
2021/03/09 10:40:48;;;;;;;31.53;16.57;;;;;;;9.47;31.67;94624.41;5011346;28;20518;-71
2021/03/09 10:43:13;;;;;;;24.80;13.50;;;;;;;9.51;30.98;94619.94;5011729;28;20428;-70
2021/03/09 10:45:39;;;;;;;25.57;13.43;;;;;;;9.61;31.88;94626.66;5011385;28;20169;-72
2021/03/09 10:48:05;;;;;;;27.23;14.40;;;;;;;9.79;30.68;94613.72;5011783;28;20173;-70
2021/03/09 10:50:40;;;;;;;32.10;15.83;;;;;;;9.93;31.14;94619.41;5011758;28;20177;-70
2021/03/09 10:53:06;;;;;;;33.20;16.73;;;;;;;9.98;30.44;94607.66;5011412;28;20813;-70
2021/03/09 10:55:31;;;;;;;40.13;16.80;;;;;;;10.06;30.42;94596.06;5011602;28;20503;-72
2021/03/09 10:57:57;;;;;;;29.20;15.80;;;;;;;10.12;30.75;94602.66;5011438;28;20169;-72
2021/03/09 11:00:23;;;;;;;34.03;15.47;;;;;;;10.11;30.06;94603.00;5011327;28;20704;-70
2021/03/09 11:02:49;;;;;;;31.33;15.83;;;;;;;10.08;29.36;94605.25;5011426;28;20201;-71
2021/03/09 11:05:14;;;;;;;32.87;15.33;;;;;;;9.99;29.72;94595.91;5011685;28;20204;-68
2021/03/09 11:07:40;;;;;;;36.07;15.47;;;;;;;9.68;29.97;94592.16;5009886;28;20950;-70
2021/03/09 11:10:07;;;;;;;31.27;16.07;;;;;;;9.87;29.18;94598.66;5011696;28;20331;-71
2021/03/09 11:12:33;;;;;;;30.07;15.00;;;;;;;9.86;29.51;94592.56;5011257;28;20177;-70
2021/03/09 11:14:58;;;;;;;35.17;15.50;;;;;;;9.63;30.17;94595.06;5011420;28;20428;-69
2021/03/09 11:17:24;;;;;;;67.30;18.20;;;;;;;9.78;30.47;94593.53;5011592;28;20177;-71
2021/03/09 11:19:49;;;;;;;25.40;13.87;;;;;;;9.71;29.10;94588.81;5009962;28;20177;-68
2021/03/09 11:22:15;;;;;;;32.90;16.27;;;;;;;9.73;29.96;94588.44;5011504;28;20209;-68
2021/03/09 11:24:41;;;;;;;38.60;14.17;;;;;;;9.91;29.91;94586.94;5011268;28;20180;-69
2021/03/09 11:27:09;;;;;;;28.07;13.23;;;;;;;9.89;29.85;94583.88;5011353;28;20717;-69
2021/03/09 11:29:34;;;;;;;30.63;15.07;;;;;;;9.65;31.02;94573.41;5011233;28;20193;-70
2021/03/09 11:32:00;;;;;;;29.90;14.03;;;;;;;9.95;29.81;94576.38;5011202;28;20442;-73